Time;durP1;ratioP1;P1;durP2;ratioP2;P2;SDS_P1;SDS_P2;PMS_P1;PMS_P2;Temp;Humidity;BMP_temperature;BMP_pressure;BME280_temperature;BME280_humidity;BME280_pressure;Samples;Min_cycle;Max_cycle;Signal;HPM_P1;HPM_P2
2021/05/12 00:00:31;;;;;;;19.77;12.55;;;15.60;99.90;;;;;;4990412;28;20145;-75
2021/05/12 00:02:58;;;;;;;18.85;13.18;;;15.60;99.90;;;;;;4990421;28;20046;-75
2021/05/12 00:05:25;;;;;;;23.88;13.38;;;15.60;99.90;;;;;;4990531;28;20034;-75
2021/05/12 00:07:52;;;;;;;23.35;13.65;;;15.50;99.90;;;;;;4991886;28;20423;-74
2021/05/12 00:10:22;;;;;;;18.50;13.20;;;15.60;99.90;;;;;;4990410;28;20034;-75
2021/05/12 00:12:48;;;;;;;22.55;13.70;;;15.60;99.90;;;;;;4990179;28;20139;-75
2021/05/12 00:15:17;;;;;;;20.50;13.75;;;15.60;99.90;;;;;;4989218;28;20073;-76
2021/05/12 00:17:46;;;;;;;20.45;13.80;;;15.60;99.90;;;;;;4990248;28;20089;-75
2021/05/12 00:20:14;;;;;;;22.20;15.05;;;15.70;99.90;;;;;;4992582;28;20018;-75
2021/05/12 00:25:10;;;;;;;;;;;15.70;99.90;;;;;;4990663;28;20057;-76
2021/05/12 00:27:35;;;;;;;24.27;15.33;;;15.60;99.90;;;;;;4988991;28;19913;-75
2021/05/12 00:30:02;;;;;;;22.25;15.98;;;15.50;99.90;;;;;;4990189;28;20256;-76
2021/05/12 00:32:27;;;;;;;33.97;16.65;;;15.60;99.90;;;;;;4989821;28;20030;-76
2021/05/12 00:34:53;;;;;;;20.52;14.82;;;15.70;99.90;;;;;;4990724;28;20048;-76
2021/05/12 00:37:19;;;;;;;25.27;16.10;;;15.70;99.90;;;;;;4988883;28;20039;-75
2021/05/12 00:39:44;;;;;;;27.10;14.88;;;15.60;99.90;;;;;;4989953;28;20054;-75
2021/05/12 00:42:10;;;;;;;23.58;15.98;;;15.50;99.90;;;;;;4990122;28;20042;-75
2021/05/12 00:44:36;;;;;;;24.40;16.20;;;15.50;99.90;;;;;;4989923;28;20027;-75
2021/05/12 00:47:04;;;;;;;27.50;17.52;;;15.40;99.90;;;;;;4990438;28;20030;-76
2021/05/12 00:49:31;;;;;;;23.98;16.60;;;15.20;99.90;;;;;;4989578;28;20049;-76
2021/05/12 00:51:57;;;;;;;22.25;15.45;;;15.30;99.90;;;;;;4989829;28;20049;-75
2021/05/12 00:54:22;;;;;;;22.42;15.93;;;15.50;99.90;;;;;;4989867;28;20539;-76
2021/05/12 00:56:48;;;;;;;28.02;16.63;;;15.30;99.90;;;;;;4989662;28;20129;-76
2021/05/12 00:59:14;;;;;;;23.33;16.08;;;15.40;99.90;;;;;;4991057;28;20026;-75
2021/05/12 01:01:39;;;;;;;21.38;15.75;;;15.40;99.90;;;;;;4988907;28;20046;-75
2021/05/12 01:04:07;;;;;;;25.10;16.63;;;15.50;99.90;;;;;;4989696;28;20163;-75
2021/05/12 01:06:36;;;;;;;26.20;16.77;;;15.50;99.90;;;;;;4989680;28;20034;-76
2021/05/12 01:09:03;;;;;;;33.40;17.25;;;15.50;99.90;;;;;;4990215;28;20117;-76
2021/05/12 01:11:29;;;;;;;27.95;18.40;;;15.30;99.90;;;;;;4988312;28;20322;-76
2021/05/12 01:13:56;;;;;;;27.48;18.08;;;15.30;99.90;;;;;;4991151;28;20026;-76
2021/05/12 01:16:22;;;;;;;28.05;18.55;;;15.30;99.90;;;;;;4989747;28;20295;-75
2021/05/12 01:18:48;;;;;;;31.58;19.23;;;15.20;99.90;;;;;;4989308;28;20042;-75
2021/05/12 01:21:15;;;;;;;27.85;19.05;;;15.10;99.90;;;;;;4989680;28;20368;-75
2021/05/12 01:23:46;;;;;;;26.52;18.48;;;15.10;99.90;;;;;;4988328;28;20050;-76
2021/05/12 01:26:17;;;;;;;28.52;18.67;;;15.10;99.90;;;;;;4990824;28;20054;-75
2021/05/12 01:28:46;;;;;;;29.35;18.65;;;15.10;99.90;;;;;;4989541;28;20046;-75
2021/05/12 01:31:23;;;;;;;30.23;18.92;;;14.90;99.90;;;;;;4988007;28;20069;-75
2021/05/12 01:33:51;;;;;;;30.58;18.30;;;14.80;99.90;;;;;;4990423;28;20030;-75
2021/05/12 01:36:17;;;;;;;30.17;18.42;;;14.80;99.90;;;;;;5000410;28;20029;-75
2021/05/12 01:38:45;;;;;;;33.03;19.80;;;14.80;99.90;;;;;;5009066;28;20037;-74
2021/05/12 01:41:12;;;;;;;29.10;19.05;;;14.80;99.90;;;;;;5009459;28;20030;-75
2021/05/12 01:43:38;;;;;;;29.98;20.67;;;14.70;99.90;;;;;;5008893;28;20042;-74
2021/05/12 01:46:05;;;;;;;28.95;19.45;;;14.70;99.90;;;;;;5010619;28;20041;-75
2021/05/12 01:48:32;;;;;;;28.07;19.33;;;14.70;99.90;;;;;;5012600;28;20049;-75
2021/05/12 01:50:58;;;;;;;30.00;20.48;;;14.80;99.90;;;;;;5012624;28;20259;-75
2021/05/12 01:53:24;;;;;;;30.88;19.88;;;14.80;99.90;;;;;;5012251;28;20341;-75
2021/05/12 01:55:51;;;;;;;29.10;19.45;;;14.80;99.90;;;;;;5014202;28;20468;-75
2021/05/12 01:58:17;;;;;;;35.63;20.80;;;14.90;99.90;;;;;;5012000;28;20038;-75
2021/05/12 02:00:45;;;;;;;30.75;20.52;;;14.90;99.90;;;;;;5012291;28;20053;-74
2021/05/12 02:03:11;;;;;;;30.48;19.83;;;14.90;99.90;;;;;;5012252;28;20116;-74
2021/05/12 02:05:39;;;;;;;27.60;18.63;;;14.80;99.90;;;;;;5012027;28;20029;-74
2021/05/12 02:08:07;;;;;;;24.73;18.13;;;14.80;99.90;;;;;;5013842;28;20292;-75
2021/05/12 02:10:35;;;;;;;26.88;18.45;;;14.80;99.90;;;;;;5012178;28;20057;-75
2021/05/12 02:13:00;;;;;;;27.38;19.10;;;14.70;99.90;;;;;;5012316;28;20117;-77
2021/05/12 02:15:27;;;;;;;31.67;19.42;;;14.80;99.90;;;;;;5012073;28;20133;-77
2021/05/12 02:17:52;;;;;;;28.05;18.60;;;14.80;99.90;;;;;;5011029;28;20385;-74
2021/05/12 02:20:26;;;;;;;30.40;19.55;;;14.90;99.90;;;;;;5013923;28;20116;-75
2021/05/12 02:22:52;;;;;;;28.13;18.83;;;14.70;99.90;;;;;;5012539;28;20415;-76
2021/05/12 02:25:18;;;;;;;30.63;19.45;;;14.80;99.90;;;;;;5010916;28;20080;-77
2021/05/12 02:27:44;;;;;;;29.67;18.55;;;14.90;99.90;;;;;;5011859;28;20061;-76
2021/05/12 02:30:11;;;;;;;31.15;19.27;;;14.70;99.90;;;;;;5012121;28;20077;-76
2021/05/12 02:32:37;;;;;;;31.23;17.95;;;14.70;99.90;;;;;;5011382;28;20030;-76
2021/05/12 02:35:05;;;;;;;27.55;17.48;;;14.60;99.90;;;;;;5013175;28;20359;-77
2021/05/12 02:37:31;;;;;;;28.75;17.45;;;14.70;99.90;;;;;;5010550;28;20034;-75
2021/05/12 02:39:56;;;;;;;26.20;17.20;;;14.70;99.90;;;;;;5012011;28;20462;-75
2021/05/12 02:42:22;;;;;;;32.25;18.13;;;14.70;99.90;;;;;;5010249;28;20092;-76
2021/05/12 02:44:48;;;;;;;26.58;17.60;;;14.60;99.90;;;;;;5011414;28;20038;-75
2021/05/12 02:47:14;;;;;;;29.75;17.52;;;14.70;99.90;;;;;;5012938;28;20022;-75
2021/05/12 02:49:39;;;;;;;26.65;17.10;;;14.80;99.90;;;;;;5010397;28;20070;-76
2021/05/12 02:52:06;;;;;;;37.22;17.50;;;14.80;99.90;;;;;;5011550;28;20167;-76
2021/05/12 02:54:34;;;;;;;28.33;17.23;;;14.80;99.90;;;;;;5011688;28;20034;-76
2021/05/12 02:57:00;;;;;;;25.95;17.60;;;14.80;99.90;;;;;;5010805;28;20452;-76
2021/05/12 02:59:26;;;;;;;25.25;17.58;;;14.80;99.90;;;;;;5011112;28;20116;-74
2021/05/12 03:01:51;;;;;;;25.58;16.90;;;14.80;99.90;;;;;;5013034;28;20121;-74
2021/05/12 03:04:17;;;;;;;26.95;16.42;;;14.80;99.90;;;;;;5011470;28;20057;-74
2021/05/12 03:06:43;;;;;;;27.52;15.93;;;14.90;99.90;;;;;;5011565;28;20041;-74
2021/05/12 03:09:08;;;;;;;27.08;16.08;;;14.80;99.90;;;;;;5009977;28;20034;-74
2021/05/12 03:11:35;;;;;;;26.73;16.23;;;14.80;99.90;;;;;;5009998;28;20340;-74
2021/05/12 03:14:03;;;;;;;26.42;17.15;;;14.80;99.90;;;;;;5012867;28;20033;-76
2021/05/12 03:16:29;;;;;;;24.77;15.75;;;14.80;99.90;;;;;;5009708;28;20057;-76
2021/05/12 03:18:55;;;;;;;24.30;15.52;;;14.70;99.90;;;;;;5009365;28;20054;-75
2021/05/12 03:21:21;;;;;;;28.90;15.45;;;14.70;99.90;;;;;;5010871;28;20133;-75
2021/05/12 03:23:48;;;;;;;23.15;15.88;;;14.70;99.90;;;;;;5010673;28;20117;-75
2021/05/12 03:26:14;;;;;;;27.85;16.90;;;14.70;99.90;;;;;;5011406;28;20057;-81
2021/05/12 03:28:39;;;;;;;26.33;17.25;;;14.60;99.90;;;;;;5010062;28;20514;-74
2021/05/12 03:31:05;;;;;;;24.65;16.83;;;14.60;99.90;;;;;;5010672;28;20045;-76
2021/05/12 03:33:30;;;;;;;28.48;17.70;;;14.70;99.90;;;;;;5010487;28;20038;-75
2021/05/12 03:35:56;;;;;;;27.38;17.50;;;14.70;99.90;;;;;;5010706;28;20097;-76
2021/05/12 03:38:22;;;;;;;28.80;18.77;;;14.70;99.90;;;;;;5010438;28;20034;-76
2021/05/12 03:40:47;;;;;;;31.83;19.13;;;14.70;99.90;;;;;;5012152;28;20033;-76
2021/05/12 03:43:13;;;;;;;29.85;18.30;;;14.60;99.90;;;;;;5010619;28;20053;-77
2021/05/12 03:45:39;;;;;;;33.40;19.48;;;14.70;99.90;;;;;;5011377;28;20038;-76
2021/05/12 03:48:06;;;;;;;34.30;19.23;;;14.60;99.90;;;;;;5010010;28;20045;-76
2021/05/12 03:50:32;;;;;;;37.53;19.92;;;14.50;99.90;;;;;;5010147;28;20022;-76
2021/05/12 03:52:58;;;;;;;35.42;20.33;;;14.60;99.90;;;;;;5011538;28;20052;-75
2021/05/12 03:55:24;;;;;;;29.17;18.38;;;14.70;99.90;;;;;;5010150;28;20046;-75
2021/05/12 03:57:51;;;;;;;32.65;20.65;;;14.80;99.90;;;;;;5009993;28;20042;-75
2021/05/12 04:00:17;;;;;;;30.23;19.27;;;14.80;99.90;;;;;;5009786;28;20041;-75
2021/05/12 04:02:43;;;;;;;34.22;21.35;;;14.90;99.90;;;;;;5010224;28;20525;-75
2021/05/12 04:05:12;;;;;;;34.90;21.50;;;14.70;99.90;;;;;;5011593;28;20040;-76
2021/05/12 04:07:37;;;;;;;36.55;21.92;;;14.80;99.90;;;;;;5009717;28;20033;-75
2021/05/12 04:10:07;;;;;;;43.92;23.23;;;14.90;99.90;;;;;;4995351;28;20478;-75
2021/05/12 04:12:33;;;;;;;37.28;23.00;;;14.80;99.90;;;;;;5000140;28;20483;-75
2021/05/12 04:14:59;;;;;;;39.20;22.33;;;14.90;99.90;;;;;;5009909;28;20061;-76
2021/05/12 04:17:26;;;;;;;41.47;23.38;;;14.80;99.90;;;;;;5008728;28;20034;-75
2021/05/12 04:19:52;;;;;;;39.87;22.37;;;14.90;99.90;;;;;;5011538;28;20014;-75
2021/05/12 04:22:18;;;;;;;35.92;21.77;;;14.90;99.90;;;;;;5009651;28;20037;-74
2021/05/12 04:24:44;;;;;;;45.55;25.27;;;14.70;99.90;;;;;;5009691;28;20037;-74
2021/05/12 04:27:11;;;;;;;48.30;23.60;;;14.80;99.90;;;;;;5009631;28;20057;-74
2021/05/12 04:29:36;;;;;;;45.85;24.02;;;14.80;99.90;;;;;;5009670;28;20685;-74
2021/05/12 04:32:04;;;;;;;44.58;26.13;;;14.70;99.90;;;;;;5010065;28;20429;-74
2021/05/12 04:34:29;;;;;;;44.10;24.88;;;14.60;99.90;;;;;;5009857;28;20467;-75
2021/05/12 04:36:55;;;;;;;46.10;25.83;;;14.70;99.90;;;;;;5009513;28;20057;-75
2021/05/12 04:39:21;;;;;;;43.72;24.67;;;14.70;99.90;;;;;;5009459;28;20029;-74
2021/05/12 04:41:47;;;;;;;49.67;26.13;;;14.70;99.90;;;;;;5008296;28;20136;-75
2021/05/12 04:44:14;;;;;;;47.47;25.75;;;14.70;99.90;;;;;;5011045;28;20114;-75
2021/05/12 04:46:40;;;;;;;50.13;26.02;;;14.70;99.90;;;;;;5009295;28;20056;-75
2021/05/12 04:49:07;;;;;;;51.22;27.67;;;14.70;99.90;;;;;;5008501;28;20073;-74
2021/05/12 04:51:35;;;;;;;49.38;27.83;;;14.80;99.90;;;;;;5009317;28;20518;-75
2021/05/12 04:54:02;;;;;;;46.60;25.08;;;14.80;99.90;;;;;;5008272;28;20160;-75
2021/05/12 04:56:28;;;;;;;55.00;26.80;;;14.90;99.90;;;;;;5008014;28;20022;-76
2021/05/12 04:58:54;;;;;;;45.55;25.63;;;14.90;99.90;;;;;;5010664;28;20022;-76
2021/05/12 05:01:19;;;;;;;50.70;25.42;;;14.90;99.90;;;;;;5009235;28;20399;-74
2021/05/12 05:03:45;;;;;;;46.58;24.80;;;15.00;99.90;;;;;;5008021;28;20376;-74
2021/05/12 05:06:11;;;;;;;49.50;24.27;;;15.00;99.90;;;;;;5009436;28;20368;-74
2021/05/12 05:08:37;;;;;;;45.90;24.63;;;15.10;99.90;;;;;;5009021;28;20044;-75
2021/05/12 05:11:03;;;;;;;52.72;26.13;;;15.10;99.90;;;;;;5009641;28;20026;-75
2021/05/12 05:13:28;;;;;;;42.65;23.50;;;15.00;99.90;;;;;;5009178;28;20053;-75
2021/05/12 05:15:54;;;;;;;45.05;23.95;;;15.10;99.90;;;;;;5008987;28;20061;-75
2021/05/12 05:18:20;;;;;;;48.95;25.73;;;15.10;99.90;;;;;;5008995;28;20034;-75
2021/05/12 05:20:45;;;;;;;44.55;24.88;;;15.00;99.90;;;;;;5010551;28;20131;-76
2021/05/12 05:23:11;;;;;;;49.75;24.70;;;15.00;99.90;;;;;;5014889;28;20176;-76
2021/05/12 05:25:36;;;;;;;42.05;23.42;;;15.00;99.90;;;;;;5012734;28;20435;-76
2021/05/12 05:28:02;;;;;;;46.30;24.95;;;15.00;99.90;;;;;;5011872;28;20034;-76
2021/05/12 05:30:28;;;;;;;45.30;25.15;;;15.00;99.90;;;;;;5012457;28;20119;-75
2021/05/12 05:33:00;;;;;;;51.28;25.70;;;15.10;99.90;;;;;;5012491;28;20022;-76
2021/05/12 05:35:27;;;;;;;41.40;23.75;;;15.30;99.90;;;;;;5012589;28;20033;-75
2021/05/12 05:37:52;;;;;;;45.05;24.60;;;15.40;99.90;;;;;;5014451;28;20383;-74
2021/05/12 05:40:18;;;;;;;45.30;26.13;;;15.40;99.90;;;;;;5012261;28;20464;-75
2021/05/12 05:42:44;;;;;;;51.33;26.33;;;15.40;99.90;;;;;;5012772;28;20038;-78
2021/05/12 05:45:10;;;;;;;48.95;26.58;;;15.40;99.90;;;;;;5012378;28;20033;-77
2021/05/12 05:47:35;;;;;;;51.90;26.08;;;15.50;99.90;;;;;;5012763;28;20034;-78
2021/05/12 05:50:03;;;;;;;50.08;27.20;;;15.50;99.90;;;;;;5014199;28;20046;-79
2021/05/12 05:52:28;;;;;;;49.65;26.52;;;15.40;99.90;;;;;;5012487;28;20096;-79
2021/05/12 05:54:58;;;;;;;48.20;25.65;;;15.40;99.90;;;;;;5012909;28;20045;-79
2021/05/12 05:57:24;;;;;;;42.95;24.83;;;15.30;99.90;;;;;;5013245;28;20399;-79
2021/05/12 05:59:49;;;;;;;42.17;25.00;;;15.30;99.90;;;;;;5012815;28;20037;-79
2021/05/12 06:02:15;;;;;;;42.72;24.65;;;15.30;99.90;;;;;;5014036;28;20053;-79
2021/05/12 06:04:41;;;;;;;39.50;23.15;;;15.30;99.90;;;;;;5012132;28;20479;-78
2021/05/12 06:07:07;;;;;;;38.38;22.50;;;15.40;99.90;;;;;;5010825;28;20034;-78
2021/05/12 06:09:33;;;;;;;39.58;22.63;;;15.50;99.90;;;;;;5011947;28;20080;-80
2021/05/12 06:11:59;;;;;;;34.83;20.30;;;15.60;99.90;;;;;;5011850;28;20042;-81
2021/05/12 06:14:24;;;;;;;36.60;21.20;;;15.80;99.90;;;;;;5011746;28;20065;-80
2021/05/12 06:16:51;;;;;;;39.30;20.52;;;15.70;99.90;;;;;;5013742;28;20026;-80
2021/05/12 06:19:16;;;;;;;37.35;21.77;;;15.80;99.90;;;;;;5011145;28;20038;-77
2021/05/12 06:21:42;;;;;;;37.42;19.40;;;15.90;99.90;;;;;;5010086;28;20038;-79
2021/05/12 06:24:08;;;;;;;28.83;18.35;;;15.90;99.90;;;;;;5011809;28;20130;-79
2021/05/12 06:26:37;;;;;;;30.80;18.58;;;16.00;99.90;;;;;;5010534;28;20026;-80
2021/05/12 06:29:03;;;;;;;32.65;20.23;;;15.90;99.90;;;;;;5013888;28;20048;-79
2021/05/12 06:31:29;;;;;;;30.73;18.27;;;15.90;99.90;;;;;;5011862;28;20426;-78
2021/05/12 06:33:55;;;;;;;28.40;18.35;;;15.90;99.90;;;;;;5011517;28;20336;-81
2021/05/12 06:36:20;;;;;;;30.80;18.63;;;15.90;99.90;;;;;;5010424;28;20030;-81
2021/05/12 06:38:47;;;;;;;28.77;18.25;;;15.90;99.90;;;;;;5011794;28;20037;-80
2021/05/12 06:41:13;;;;;;;29.33;18.10;;;15.80;99.90;;;;;;5013629;28;20037;-82
2021/05/12 06:43:39;;;;;;;34.63;20.23;;;15.80;99.90;;;;;;5011373;28;20037;-82
2021/05/12 06:46:05;;;;;;;29.83;17.38;;;15.80;99.90;;;;;;5010274;28;20037;-82
2021/05/12 06:48:30;;;;;;;26.20;16.45;;;15.70;99.90;;;;;;5011818;28;20056;-82
2021/05/12 06:50:56;;;;;;;28.65;17.45;;;15.50;99.90;;;;;;5011454;28;20056;-82
2021/05/12 06:53:30;;;;;;;26.33;16.90;;;15.50;99.90;;;;;;5010362;28;20088;-80
2021/05/12 06:55:56;;;;;;;29.20;17.30;;;15.50;99.90;;;;;;5012792;28;20029;-81
2021/05/12 06:58:22;;;;;;;31.23;15.93;;;15.40;99.90;;;;;;5011389;28;20096;-82
2021/05/12 07:00:50;;;;;;;23.92;14.10;;;15.30;99.90;;;;;;5011451;28;20046;-80
2021/05/12 07:03:16;;;;;;;21.30;13.88;;;15.30;99.90;;;;;;5010785;28;20103;-79
2021/05/12 07:05:42;;;;;;;23.02;13.52;;;15.30;99.90;;;;;;5011483;28;20033;-80
2021/05/12 07:08:08;;;;;;;20.15;12.13;;;15.40;99.90;;;;;;5012634;28;20022;-80
2021/05/12 07:10:34;;;;;;;19.73;12.65;;;15.30;99.90;;;;;;5009769;28;20100;-81
2021/05/12 07:13:00;;;;;;;19.55;12.73;;;15.40;99.90;;;;;;5010748;28;20033;-83
2021/05/12 07:15:25;;;;;;;28.50;14.48;;;15.20;99.90;;;;;;5010167;28;20050;-80
2021/05/12 07:17:51;;;;;;;23.52;14.00;;;15.30;99.90;;;;;;5010896;28;20468;-82
2021/05/12 07:20:17;;;;;;;19.45;12.80;;;15.30;99.90;;;;;;5012472;28;20022;-80
2021/05/12 07:22:43;;;;;;;22.90;13.20;;;15.30;99.90;;;;;;5011098;28;20038;-79
2021/05/12 07:25:10;;;;;;;22.15;13.05;;;15.30;99.90;;;;;;5010754;28;20415;-81
2021/05/12 07:27:36;;;;;;;24.83;13.40;;;15.20;99.90;;;;;;5010382;28;20108;-83
2021/05/12 07:30:03;;;;;;;22.83;12.20;;;15.20;99.90;;;;;;5009663;28;20417;-82
2021/05/12 07:32:28;;;;;;;22.83;12.65;;;15.30;99.90;;;;;;5010206;28;20030;-80
2021/05/12 07:34:54;;;;;;;19.42;12.38;;;15.10;99.90;;;;;;5012330;28;20037;-79
2021/05/12 07:37:20;;;;;;;18.00;11.68;;;15.00;99.90;;;;;;5009200;28;20046;-80
2021/05/12 07:39:46;;;;;;;19.60;12.05;;;15.10;99.90;;;;;;5011008;28;20072;-81
2021/05/12 07:42:13;;;;;;;21.50;12.52;;;15.00;99.90;;;;;;5008881;28;20038;-81
2021/05/12 07:44:39;;;;;;;22.23;12.03;;;15.10;99.90;;;;;;5010131;28;20022;-82
2021/05/12 07:47:05;;;;;;;18.52;11.40;;;15.30;99.90;;;;;;5011824;28;20080;-79
2021/05/12 07:49:30;;;;;;;20.00;11.82;;;15.20;99.90;;;;;;5010044;28;20107;-81
2021/05/12 07:51:56;;;;;;;19.15;11.35;;;15.30;99.90;;;;;;5010344;28;20034;-80
2021/05/12 07:54:22;;;;;;;19.13;11.90;;;15.30;99.90;;;;;;5009217;28;20058;-78
2021/05/12 07:56:48;;;;;;;23.05;12.23;;;15.30;99.90;;;;;;5009983;28;20372;-76
2021/05/12 07:59:16;;;;;;;18.80;11.82;;;15.30;99.90;;;;;;5011705;28;20436;-78
2021/05/12 08:01:44;;;;;;;;;;;15.40;99.90;;;;;;5010623;28;20049;-77
2021/05/12 08:04:09;;;;;;;;;;;15.50;99.90;;;;;;5010550;28;19968;-78
2021/05/12 08:06:35;;;;;;;19.60;12.00;;;15.50;99.90;;;;;;5010139;28;20327;-78
2021/05/12 08:09:05;;;;;;;21.05;11.80;;;15.40;99.90;;;;;;5009961;28;20033;-76
2021/05/12 08:11:31;;;;;;;16.35;11.43;;;15.20;99.90;;;;;;5009882;28;20030;-81
2021/05/12 08:13:56;;;;;;;20.80;12.35;;;15.30;99.90;;;;;;5010615;28;20030;-79
2021/05/12 08:16:22;;;;;;;19.67;12.43;;;15.50;99.90;;;;;;5009860;28;20038;-79
2021/05/12 08:18:48;;;;;;;21.85;12.68;;;15.60;99.90;;;;;;5009688;28;20121;-82
2021/05/12 08:21:13;;;;;;;19.13;12.77;;;15.70;99.90;;;;;;5010115;28;20405;-81
2021/05/12 08:23:39;;;;;;;17.17;11.10;;;15.60;99.90;;;;;;5008842;28;20018;-81
2021/05/12 08:26:05;;;;;;;23.45;11.77;;;15.60;99.90;;;;;;5011948;28;20024;-79
2021/05/12 08:28:30;;;;;;;18.45;12.30;;;15.80;99.90;;;;;;5009959;28;20120;-81
2021/05/12 08:30:57;;;;;;;20.67;11.93;;;15.90;99.90;;;;;;5009643;28;20032;-79
2021/05/12 08:33:23;;;;;;;22.48;12.73;;;15.90;99.90;;;;;;5010158;28;20072;-82
2021/05/12 08:35:49;;;;;;;20.63;12.60;;;15.80;99.90;;;;;;5009643;28;20026;-81
2021/05/12 08:38:20;;;;;;;18.80;12.48;;;15.90;99.90;;;;;;5011349;28;20344;-81
2021/05/12 08:40:46;;;;;;;17.05;11.70;;;16.00;99.90;;;;;;5008845;28;20133;-82
2021/05/12 08:43:13;;;;;;;15.05;10.52;;;16.10;99.90;;;;;;5009109;28;20105;-81
2021/05/12 08:45:42;;;;;;;15.95;10.43;;;16.00;99.90;;;;;;5009793;28;20045;-81
2021/05/12 08:48:12;;;;;;;16.63;11.05;;;15.90;99.90;;;;;;5008358;28;20112;-80
2021/05/12 08:50:38;;;;;;;14.52;10.48;;;16.00;99.90;;;;;;5008382;28;20506;-82
2021/05/12 08:53:05;;;;;;;17.13;10.90;;;16.10;99.90;;;;;;5010917;28;20363;-82
2021/05/12 08:55:32;;;;;;;15.52;10.30;;;16.00;99.90;;;;;;5007745;28;20471;-82
2021/05/12 08:57:58;;;;;;;19.55;10.50;;;15.90;99.90;;;;;;5008207;28;20033;-80
2021/05/12 09:00:23;;;;;;;13.63;9.75;;;15.90;99.90;;;;;;5008915;28;20119;-80
2021/05/12 09:02:50;;;;;;;17.67;11.02;;;15.90;99.90;;;;;;5009271;28;20487;-79
2021/05/12 09:05:16;;;;;;;16.60;10.50;;;16.00;99.90;;;;;;5010930;28;20030;-78
2021/05/12 09:07:41;;;;;;;18.75;10.40;;;16.10;99.90;;;;;;5009257;28;20427;-82
2021/05/12 09:10:08;;;;;;;15.85;9.98;;;16.20;99.90;;;;;;5009320;28;20046;-80
2021/05/12 09:12:56;;;;;;;15.77;10.57;;;16.30;99.90;;;;;;5008852;28;20034;-80
2021/05/12 09:15:23;;;;;;;16.00;9.93;;;16.20;99.90;;;;;;5000289;28;20097;-80
2021/05/12 09:17:51;;;;;;;14.85;9.85;;;16.10;99.70;;;;;;5004657;28;20057;-80
2021/05/12 09:20:19;;;;;;;17.60;10.25;;;15.90;99.70;;;;;;4990895;28;20029;-76
2021/05/12 09:23:00;;;;;;;17.30;9.90;;;16.10;99.90;;;;;;5008970;28;20132;-78
2021/05/12 09:25:30;;;;;;;13.45;9.48;;;16.10;99.90;;;;;;5008920;28;20038;-81
2021/05/12 09:28:16;;;;;;;14.43;9.68;;;16.10;99.70;;;;;;5008826;28;20042;-81
2021/05/12 09:30:45;;;;;;;17.00;11.82;;;16.20;99.30;;;;;;5008944;28;20100;-79
2021/05/12 09:33:27;;;;;;;14.40;9.50;;;16.30;99.50;;;;;;5008840;28;20564;-79
2021/05/12 09:35:53;;;;;;;14.68;9.38;;;16.50;99.50;;;;;;5007631;28;20455;-79
2021/05/12 09:38:24;;;;;;;13.13;7.80;;;16.50;98.80;;;;;;5010529;28;20105;-80
2021/05/12 09:41:11;;;;;;;12.73;7.50;;;16.50;98.50;;;;;;5024000;28;20038;-80
2021/05/12 09:43:50;;;;;;;13.43;7.35;;;16.50;98.40;;;;;;5008274;28;20038;-80
2021/05/12 09:46:15;;;;;;;11.90;7.55;;;16.50;98.60;;;;;;5009130;28;20033;-78
2021/05/12 09:48:47;;;;;;;11.70;7.57;;;16.50;98.40;;;;;;5007497;28;20040;-79
2021/05/12 09:51:20;;;;;;;12.35;7.20;;;16.50;97.90;;;;;;5008624;28;20041;-80
2021/05/12 09:54:00;;;;;;;11.00;6.85;;;16.50;97.50;;;;;;5008915;28;20034;-79
2021/05/12 09:56:39;;;;;;;12.82;6.93;;;16.50;97.60;;;;;;5007458;28;20033;-79
2021/05/12 09:59:08;;;;;;;14.90;7.18;;;16.60;97.50;;;;;;5009351;28;20029;-78
2021/05/12 10:01:55;;;;;;;11.68;6.80;;;16.80;97.60;;;;;;5008560;28;20045;-78
2021/05/12 10:04:36;;;;;;;9.85;7.00;;;17.00;97.80;;;;;;5007376;28;20054;-76
2021/05/12 10:07:14;;;;;;;14.85;7.18;;;17.00;97.20;;;;;;5009738;28;20115;-78
2021/05/12 10:09:42;;;;;;;9.30;6.10;;;17.00;96.80;;;;;;5011905;28;20422;-77
2021/05/12 10:12:10;;;;;;;10.18;6.32;;;17.10;96.60;;;;;;5011985;28;20096;-80
2021/05/12 10:14:39;;;;;;;8.82;6.10;;;17.40;96.80;;;;;;5012101;28;20229;-83
2021/05/12 10:17:08;;;;;;;12.65;7.68;;;17.40;96.30;;;;;;5012564;28;20122;-83
2021/05/12 10:19:35;;;;;;;13.30;6.50;;;17.40;96.20;;;;;;5010666;28;20046;-82
2021/05/12 10:22:02;;;;;;;10.68;6.53;;;17.40;96.30;;;;;;5010537;28;20120;-81
2021/05/12 10:24:30;;;;;;;9.57;6.60;;;17.40;95.60;;;;;;5012506;28;20131;-80
2021/05/12 10:26:57;;;;;;;8.73;6.18;;;17.40;95.90;;;;;;5011215;28;20283;-80
2021/05/12 10:29:24;;;;;;;12.70;6.05;;;17.30;95.10;;;;;;5011512;28;20029;-79
2021/05/12 10:31:50;;;;;;;9.30;6.35;;;17.30;95.00;;;;;;5013136;28;20025;-78
2021/05/12 10:34:35;;;;;;;7.82;6.10;;;17.30;94.90;;;;;;5011504;28;20051;-78
2021/05/12 10:37:21;;;;;;;21.15;7.18;;;17.40;95.20;;;;;;5011017;28;20648;-76
2021/05/12 10:39:52;;;;;;;8.68;5.45;;;17.40;94.90;;;;;;5011300;28;20375;-81
2021/05/12 10:42:49;;;;;;;8.05;5.75;;;17.60;95.00;;;;;;5011377;28;20464;-81
2021/05/12 10:45:21;;;;;;;8.30;5.93;;;17.40;94.40;;;;;;5010399;28;20732;-77
2021/05/12 10:47:47;;;;;;;15.73;6.38;;;17.70;94.70;;;;;;5010528;28;20042;-81
2021/05/12 10:50:13;;;;;;;10.75;6.32;;;17.70;94.20;;;;;;5011852;28;20104;-80
2021/05/12 10:53:18;;;;;;;10.95;6.22;;;17.50;94.10;;;;;;5010181;28;20062;-78
2021/05/12 10:56:11;;;;;;;12.55;6.53;;;17.70;94.30;;;;;;5010765;28;20261;-80
2021/05/12 10:58:57;;;;;;;18.33;7.63;;;17.70;94.40;;;;;;5009509;28;20041;-80
2021/05/12 11:01:31;;;;;;;12.55;7.32;;;17.70;94.50;;;;;;5010374;28;20033;-78
2021/05/12 11:03:56;;;;;;;13.27;7.85;;;17.70;94.80;;;;;;5009737;28;20099;-75
2021/05/12 11:06:34;;;;;;;11.93;8.00;;;17.80;94.50;;;;;;5010045;28;20415;-78
2021/05/12 11:09:09;;;;;;;14.73;7.70;;;17.80;94.80;;;;;;5010765;28;20026;-82
2021/05/12 11:11:38;;;;;;;12.52;6.95;;;18.00;94.70;;;;;;5011524;28;20478;-81
2021/05/12 11:14:23;;;;;;;10.52;6.85;;;18.10;94.20;;;;;;5012749;28;20032;-80
2021/05/12 11:17:01;;;;;;;9.75;6.53;;;18.10;93.70;;;;;;5011742;28;20393;-80
2021/05/12 11:19:50;;;;;;;15.85;7.15;;;18.10;93.50;;;;;;5010370;28;20034;-78
2021/05/12 11:24:53;;;;;;;13.02;7.63;;;18.00;93.80;;;;;;5010803;28;20470;-80
2021/05/12 11:27:32;;;;;;;11.10;7.20;;;18.10;94.10;;;;;;5010668;28;20050;-80
2021/05/12 11:32:24;;;;;;;13.50;7.38;;;18.00;93.80;;;;;;5011054;28;20021;-81
2021/05/12 11:34:50;;;;;;;16.83;7.72;;;18.00;94.00;;;;;;5012181;28;20577;-80
2021/05/12 11:37:26;;;;;;;20.73;14.60;;;18.20;93.90;;;;;;4995169;28;20038;-82
2021/05/12 11:39:55;;;;;;;14.73;9.57;;;18.10;93.80;;;;;;5005936;28;20058;-81
2021/05/12 11:42:30;;;;;;;15.32;10.38;;;18.00;93.80;;;;;;4998893;28;20125;-81
2021/05/12 11:45:05;;;;;;;10.50;6.63;;;18.10;93.50;;;;;;5009399;28;20044;-80
2021/05/12 11:47:32;;;;;;;13.13;7.10;;;18.30;93.10;;;;;;5010220;28;20348;-79
2021/05/12 11:49:58;;;;;;;11.43;6.75;;;18.40;92.60;;;;;;5010598;28;20045;-79
2021/05/12 11:52:32;;;;;;;11.35;6.13;;;18.30;92.40;;;;;;5010264;28;20463;-81
2021/05/12 11:55:08;;;;;;;9.30;6.25;;;18.40;92.10;;;;;;5008639;28;20038;-77
2021/05/12 11:57:35;;;;;;;16.02;7.25;;;18.50;92.30;;;;;;5010042;28;20122;-77
2021/05/12 12:00:04;;;;;;;9.48;6.43;;;18.40;91.90;;;;;;5009752;28;20061;-77
2021/05/12 12:02:30;;;;;;;13.43;7.22;;;18.30;91.70;;;;;;5010046;28;20029;-78
2021/05/12 12:05:04;;;;;;;11.00;6.18;;;18.40;91.80;;;;;;5011295;28;20475;-79
2021/05/12 12:07:32;;;;;;;13.48;6.55;;;18.40;91.90;;;;;;5010409;28;20152;-78
2021/05/12 12:10:04;;;;;;;12.30;6.07;;;18.50;91.80;;;;;;5009990;28;20052;-79
2021/05/12 12:12:30;;;;;;;10.38;6.47;;;18.40;91.70;;;;;;5009758;28;20336;-78
2021/05/12 12:15:10;;;;;;;10.50;6.63;;;18.50;91.40;;;;;;5009044;28;20030;-77
2021/05/12 12:17:36;;;;;;;14.77;9.23;;;18.60;91.80;;;;;;5009789;28;20030;-79
2021/05/12 12:20:08;;;;;;;9.70;5.45;;;18.80;91.60;;;;;;5011261;28;20345;-76
2021/05/12 12:22:34;;;;;;;8.25;5.03;;;18.90;91.40;;;;;;5009619;28;20044;-80
2021/05/12 12:25:16;;;;;;;8.77;4.80;;;19.00;90.90;;;;;;5007846;28;20092;-79
2021/05/12 12:27:43;;;;;;;7.78;4.47;;;19.00;90.80;;;;;;5010129;28;20050;-80
2021/05/12 12:30:13;;;;;;;10.13;4.63;;;19.10;90.80;;;;;;5009499;28;20064;-83
2021/05/12 12:32:39;;;;;;;7.80;4.57;;;19.20;90.30;;;;;;5009545;28;20026;-80
2021/05/12 12:35:05;;;;;;;8.02;4.63;;;19.20;90.10;;;;;;5010300;28;20041;-77
2021/05/12 12:37:32;;;;;;;8.05;4.80;;;19.30;90.00;;;;;;5011037;28;20464;-79
2021/05/12 12:40:09;;;;;;;6.50;4.25;;;19.30;90.10;;;;;;5009723;28;20041;-77
2021/05/12 12:42:39;;;;;;;13.30;4.70;;;19.40;89.40;;;;;;5009444;28;20038;-80